sensor_id;sensor_type;location;lat;lon;timestamp;temperature;humidity
16863;DHT22;52193;48.216;-1.698;2023-06-22T00:00:14;24.70;81.80
16863;DHT22;52193;48.216;-1.698;2023-06-22T00:02:41;24.80;82.00
16863;DHT22;52193;48.216;-1.698;2023-06-22T00:05:08;24.80;82.00
16863;DHT22;52193;48.216;-1.698;2023-06-22T00:07:36;24.80;82.00
16863;DHT22;52193;48.216;-1.698;2023-06-22T00:10:03;24.80;82.20
16863;DHT22;52193;48.216;-1.698;2023-06-22T00:12:30;24.70;82.20
16863;DHT22;52193;48.216;-1.698;2023-06-22T00:14:57;24.80;82.40
16863;DHT22;52193;48.216;-1.698;2023-06-22T00:17:24;24.80;82.40
16863;DHT22;52193;48.216;-1.698;2023-06-22T00:19:51;24.70;82.40
16863;DHT22;52193;48.216;-1.698;2023-06-22T00:22:21;24.70;82.60
16863;DHT22;52193;48.216;-1.698;2023-06-22T00:24:55;24.60;82.80
16863;DHT22;52193;48.216;-1.698;2023-06-22T00:27:22;24.70;82.90
16863;DHT22;52193;48.216;-1.698;2023-06-22T00:29:49;24.70;82.90
16863;DHT22;52193;48.216;-1.698;2023-06-22T00:32:16;24.60;83.00
16863;DHT22;52193;48.216;-1.698;2023-06-22T00:34:44;24.60;83.20
16863;DHT22;52193;48.216;-1.698;2023-06-22T00:37:11;24.60;83.30
16863;DHT22;52193;48.216;-1.698;2023-06-22T00:39:38;24.50;83.50
16863;DHT22;52193;48.216;-1.698;2023-06-22T00:42:06;24.50;83.50
16863;DHT22;52193;48.216;-1.698;2023-06-22T00:44:33;24.50;83.60
16863;DHT22;52193;48.216;-1.698;2023-06-22T00:47:00;24.50;83.70
16863;DHT22;52193;48.216;-1.698;2023-06-22T00:49:27;24.40;83.80
16863;DHT22;52193;48.216;-1.698;2023-06-22T00:51:55;24.40;84.00
16863;DHT22;52193;48.216;-1.698;2023-06-22T00:54:22;24.40;84.10
16863;DHT22;52193;48.216;-1.698;2023-06-22T00:56:50;24.40;84.10
16863;DHT22;52193;48.216;-1.698;2023-06-22T00:59:21;24.40;84.30
16863;DHT22;52193;48.216;-1.698;2023-06-22T01:01:48;24.40;84.40
16863;DHT22;52193;48.216;-1.698;2023-06-22T01:04:16;24.40;84.40
16863;DHT22;52193;48.216;-1.698;2023-06-22T01:06:58;24.40;84.50
16863;DHT22;52193;48.216;-1.698;2023-06-22T01:09:39;24.30;84.50
16863;DHT22;52193;48.216;-1.698;2023-06-22T01:12:11;24.30;84.80
16863;DHT22;52193;48.216;-1.698;2023-06-22T01:14:43;24.30;84.60
16863;DHT22;52193;48.216;-1.698;2023-06-22T01:17:15;24.30;84.70
16863;DHT22;52193;48.216;-1.698;2023-06-22T01:19:45;24.40;84.80
16863;DHT22;52193;48.216;-1.698;2023-06-22T01:22:15;24.30;84.90
16863;DHT22;52193;48.216;-1.698;2023-06-22T01:24:51;24.30;85.00
16863;DHT22;52193;48.216;-1.698;2023-06-22T01:27:31;24.40;85.00
16863;DHT22;52193;48.216;-1.698;2023-06-22T01:30:01;24.40;84.90
16863;DHT22;52193;48.216;-1.698;2023-06-22T01:32:33;24.30;84.90
16863;DHT22;52193;48.216;-1.698;2023-06-22T01:35:02;24.30;85.00
16863;DHT22;52193;48.216;-1.698;2023-06-22T01:37:30;24.30;85.00
16863;DHT22;52193;48.216;-1.698;2023-06-22T01:39:59;24.30;85.10
16863;DHT22;52193;48.216;-1.698;2023-06-22T01:42:26;24.20;85.20
16863;DHT22;52193;48.216;-1.698;2023-06-22T01:44:54;24.20;85.20
16863;DHT22;52193;48.216;-1.698;2023-06-22T01:47:22;24.20;85.20
16863;DHT22;52193;48.216;-1.698;2023-06-22T01:49:50;24.20;85.20
16863;DHT22;52193;48.216;-1.698;2023-06-22T01:52:18;24.20;85.30
16863;DHT22;52193;48.216;-1.698;2023-06-22T01:54:46;24.20;85.20
16863;DHT22;52193;48.216;-1.698;2023-06-22T01:57:14;24.20;85.20
16863;DHT22;52193;48.216;-1.698;2023-06-22T01:59:47;24.20;85.10
16863;DHT22;52193;48.216;-1.698;2023-06-22T02:02:17;24.20;85.20
16863;DHT22;52193;48.216;-1.698;2023-06-22T02:04:51;24.20;85.20
16863;DHT22;52193;48.216;-1.698;2023-06-22T02:07:19;24.10;85.10
16863;DHT22;52193;48.216;-1.698;2023-06-22T02:09:49;24.10;85.00
16863;DHT22;52193;48.216;-1.698;2023-06-22T02:12:21;24.10;85.00
16863;DHT22;52193;48.216;-1.698;2023-06-22T02:14:49;24.10;85.00
16863;DHT22;52193;48.216;-1.698;2023-06-22T02:17:17;24.10;85.10
16863;DHT22;52193;48.216;-1.698;2023-06-22T02:19:45;24.10;85.00
16863;DHT22;52193;48.216;-1.698;2023-06-22T02:22:13;24.10;85.10
16863;DHT22;52193;48.216;-1.698;2023-06-22T02:24:40;24.10;85.00
16863;DHT22;52193;48.216;-1.698;2023-06-22T02:27:07;24.10;85.10
16863;DHT22;52193;48.216;-1.698;2023-06-22T02:29:34;24.10;85.10
16863;DHT22;52193;48.216;-1.698;2023-06-22T02:32:01;24.00;85.10
16863;DHT22;52193;48.216;-1.698;2023-06-22T02:34:29;24.00;85.20
16863;DHT22;52193;48.216;-1.698;2023-06-22T02:36:56;23.90;85.30
16863;DHT22;52193;48.216;-1.698;2023-06-22T02:39:28;24.00;85.50
16863;DHT22;52193;48.216;-1.698;2023-06-22T02:41:55;23.90;85.40
16863;DHT22;52193;48.216;-1.698;2023-06-22T02:44:22;23.90;85.50
16863;DHT22;52193;48.216;-1.698;2023-06-22T02:46:49;23.80;85.50
16863;DHT22;52193;48.216;-1.698;2023-06-22T02:49:16;23.80;85.60
16863;DHT22;52193;48.216;-1.698;2023-06-22T02:51:45;23.80;85.70
16863;DHT22;52193;48.216;-1.698;2023-06-22T02:54:13;23.80;85.80
16863;DHT22;52193;48.216;-1.698;2023-06-22T02:56:41;23.80;85.80
16863;DHT22;52193;48.216;-1.698;2023-06-22T02:59:09;23.80;85.80
16863;DHT22;52193;48.216;-1.698;2023-06-22T03:01:36;23.80;85.90
16863;DHT22;52193;48.216;-1.698;2023-06-22T03:04:06;23.70;85.90
16863;DHT22;52193;48.216;-1.698;2023-06-22T03:06:33;23.70;86.00
16863;DHT22;52193;48.216;-1.698;2023-06-22T03:09:02;23.70;86.10
16863;DHT22;52193;48.216;-1.698;2023-06-22T03:11:30;23.70;86.10
16863;DHT22;52193;48.216;-1.698;2023-06-22T03:13:59;23.70;86.00
16863;DHT22;52193;48.216;-1.698;2023-06-22T03:16:26;23.60;86.20
16863;DHT22;52193;48.216;-1.698;2023-06-22T03:18:53;23.60;86.40
16863;DHT22;52193;48.216;-1.698;2023-06-22T03:21:22;23.60;86.40
16863;DHT22;52193;48.216;-1.698;2023-06-22T03:23:49;23.60;86.30
16863;DHT22;52193;48.216;-1.698;2023-06-22T03:26:17;23.60;86.30
16863;DHT22;52193;48.216;-1.698;2023-06-22T03:28:44;23.60;86.50
16863;DHT22;52193;48.216;-1.698;2023-06-22T03:31:12;23.60;86.50
16863;DHT22;52193;48.216;-1.698;2023-06-22T03:33:39;23.60;86.40
16863;DHT22;52193;48.216;-1.698;2023-06-22T03:36:06;23.50;86.40
16863;DHT22;52193;48.216;-1.698;2023-06-22T03:38:33;23.50;86.40
16863;DHT22;52193;48.216;-1.698;2023-06-22T03:41:00;23.50;86.50
16863;DHT22;52193;48.216;-1.698;2023-06-22T03:43:27;23.50;86.50
16863;DHT22;52193;48.216;-1.698;2023-06-22T03:45:54;23.50;86.50
16863;DHT22;52193;48.216;-1.698;2023-06-22T03:48:22;23.40;86.50
16863;DHT22;52193;48.216;-1.698;2023-06-22T03:50:49;23.50;86.60
16863;DHT22;52193;48.216;-1.698;2023-06-22T03:53:16;23.50;86.60
16863;DHT22;52193;48.216;-1.698;2023-06-22T03:55:48;23.40;86.50
16863;DHT22;52193;48.216;-1.698;2023-06-22T03:58:16;23.40;86.60
16863;DHT22;52193;48.216;-1.698;2023-06-22T04:00:44;23.40;86.60
16863;DHT22;52193;48.216;-1.698;2023-06-22T04:03:12;23.40;86.70
16863;DHT22;52193;48.216;-1.698;2023-06-22T04:05:40;23.40;86.70
16863;DHT22;52193;48.216;-1.698;2023-06-22T04:08:08;23.40;86.70
16863;DHT22;52193;48.216;-1.698;2023-06-22T04:10:35;23.30;86.70
16863;DHT22;52193;48.216;-1.698;2023-06-22T04:13:02;23.30;86.90
16863;DHT22;52193;48.216;-1.698;2023-06-22T04:15:29;23.30;86.80
16863;DHT22;52193;48.216;-1.698;2023-06-22T04:17:56;23.30;86.90
16863;DHT22;52193;48.216;-1.698;2023-06-22T04:20:23;23.20;86.90
16863;DHT22;52193;48.216;-1.698;2023-06-22T04:22:53;23.30;87.00
16863;DHT22;52193;48.216;-1.698;2023-06-22T04:25:20;23.20;86.80
16863;DHT22;52193;48.216;-1.698;2023-06-22T04:27:47;23.20;87.50
16863;DHT22;52193;48.216;-1.698;2023-06-22T04:30:14;23.30;87.10
16863;DHT22;52193;48.216;-1.698;2023-06-22T04:32:42;23.30;86.90
16863;DHT22;52193;48.216;-1.698;2023-06-22T04:35:10;23.30;87.00
16863;DHT22;52193;48.216;-1.698;2023-06-22T04:37:37;23.20;86.80
16863;DHT22;52193;48.216;-1.698;2023-06-22T04:40:07;23.20;86.90
16863;DHT22;52193;48.216;-1.698;2023-06-22T04:42:35;23.30;87.00
16863;DHT22;52193;48.216;-1.698;2023-06-22T04:45:03;23.20;86.90
16863;DHT22;52193;48.216;-1.698;2023-06-22T04:47:30;23.20;86.90
16863;DHT22;52193;48.216;-1.698;2023-06-22T04:49:57;23.30;87.00
16863;DHT22;52193;48.216;-1.698;2023-06-22T04:52:24;23.30;87.00
16863;DHT22;52193;48.216;-1.698;2023-06-22T04:54:51;23.30;87.00
16863;DHT22;52193;48.216;-1.698;2023-06-22T04:57:22;23.30;86.90
16863;DHT22;52193;48.216;-1.698;2023-06-22T04:59:56;23.20;86.90
16863;DHT22;52193;48.216;-1.698;2023-06-22T05:02:23;23.20;86.80
16863;DHT22;52193;48.216;-1.698;2023-06-22T05:04:57;23.20;87.00
16863;DHT22;52193;48.216;-1.698;2023-06-22T05:07:24;23.20;86.80
16863;DHT22;52193;48.216;-1.698;2023-06-22T05:09:52;23.20;86.90
16863;DHT22;52193;48.216;-1.698;2023-06-22T05:12:19;23.20;86.80
16863;DHT22;52193;48.216;-1.698;2023-06-22T05:14:47;23.20;86.70
16863;DHT22;52193;48.216;-1.698;2023-06-22T05:17:14;23.20;86.80
16863;DHT22;52193;48.216;-1.698;2023-06-22T05:19:44;23.20;86.70
16863;DHT22;52193;48.216;-1.698;2023-06-22T05:22:14;23.20;86.80
16863;DHT22;52193;48.216;-1.698;2023-06-22T05:24:41;23.30;87.50
16863;DHT22;52193;48.216;-1.698;2023-06-22T05:27:08;23.20;87.30
16863;DHT22;52193;48.216;-1.698;2023-06-22T05:29:35;23.20;86.70
16863;DHT22;52193;48.216;-1.698;2023-06-22T05:32:04;23.20;86.80
16863;DHT22;52193;48.216;-1.698;2023-06-22T05:34:31;23.20;86.80
16863;DHT22;52193;48.216;-1.698;2023-06-22T05:36:58;23.20;87.00
16863;DHT22;52193;48.216;-1.698;2023-06-22T05:39:25;23.20;87.00
16863;DHT22;52193;48.216;-1.698;2023-06-22T05:41:52;23.30;87.20
16863;DHT22;52193;48.216;-1.698;2023-06-22T05:44:19;23.30;87.20
16863;DHT22;52193;48.216;-1.698;2023-06-22T05:46:46;23.40;87.30
16863;DHT22;52193;48.216;-1.698;2023-06-22T05:49:15;23.40;87.30
16863;DHT22;52193;48.216;-1.698;2023-06-22T05:51:42;23.40;87.40
16863;DHT22;52193;48.216;-1.698;2023-06-22T05:54:09;23.30;87.50
16863;DHT22;52193;48.216;-1.698;2023-06-22T05:56:39;23.40;87.80
16863;DHT22;52193;48.216;-1.698;2023-06-22T05:59:06;23.40;87.80
16863;DHT22;52193;48.216;-1.698;2023-06-22T06:01:32;23.40;87.80
16863;DHT22;52193;48.216;-1.698;2023-06-22T06:04:02;23.50;87.90
16863;DHT22;52193;48.216;-1.698;2023-06-22T06:06:30;23.40;87.90
16863;DHT22;52193;48.216;-1.698;2023-06-22T06:08:57;23.50;88.10
16863;DHT22;52193;48.216;-1.698;2023-06-22T06:11:25;23.50;88.10
16863;DHT22;52193;48.216;-1.698;2023-06-22T06:13:52;23.50;88.20
16863;DHT22;52193;48.216;-1.698;2023-06-22T06:16:19;23.50;88.20
16863;DHT22;52193;48.216;-1.698;2023-06-22T06:18:46;23.50;88.30
16863;DHT22;52193;48.216;-1.698;2023-06-22T06:21:14;23.50;88.50
16863;DHT22;52193;48.216;-1.698;2023-06-22T06:23:42;23.50;88.60
16863;DHT22;52193;48.216;-1.698;2023-06-22T06:26:09;23.60;88.70
16863;DHT22;52193;48.216;-1.698;2023-06-22T06:28:36;23.60;88.60
16863;DHT22;52193;48.216;-1.698;2023-06-22T06:31:03;23.60;88.60
16863;DHT22;52193;48.216;-1.698;2023-06-22T06:33:34;23.60;88.60
16863;DHT22;52193;48.216;-1.698;2023-06-22T06:36:01;23.70;88.80
16863;DHT22;52193;48.216;-1.698;2023-06-22T06:38:29;23.70;89.40
16863;DHT22;52193;48.216;-1.698;2023-06-22T06:40:58;23.70;88.60
16863;DHT22;52193;48.216;-1.698;2023-06-22T06:43:25;23.80;89.40
16863;DHT22;52193;48.216;-1.698;2023-06-22T06:45:52;23.80;89.30
16863;DHT22;52193;48.216;-1.698;2023-06-22T06:48:19;23.90;88.60
16863;DHT22;52193;48.216;-1.698;2023-06-22T06:50:46;23.90;88.60
16863;DHT22;52193;48.216;-1.698;2023-06-22T06:53:13;23.90;88.50
16863;DHT22;52193;48.216;-1.698;2023-06-22T06:55:40;24.00;88.50
16863;DHT22;52193;48.216;-1.698;2023-06-22T06:58:08;24.00;88.30
16863;DHT22;52193;48.216;-1.698;2023-06-22T07:00:37;24.00;88.30
16863;DHT22;52193;48.216;-1.698;2023-06-22T07:03:04;24.10;88.20
16863;DHT22;52193;48.216;-1.698;2023-06-22T07:05:32;24.10;88.20
16863;DHT22;52193;48.216;-1.698;2023-06-22T07:07:59;24.10;88.10
16863;DHT22;52193;48.216;-1.698;2023-06-22T07:10:26;24.20;88.10
16863;DHT22;52193;48.216;-1.698;2023-06-22T07:12:53;24.10;87.90
16863;DHT22;52193;48.216;-1.698;2023-06-22T07:15:21;24.20;87.80
16863;DHT22;52193;48.216;-1.698;2023-06-22T07:17:48;24.20;87.70
16863;DHT22;52193;48.216;-1.698;2023-06-22T07:20:15;24.20;87.50
16863;DHT22;52193;48.216;-1.698;2023-06-22T07:22:44;24.30;87.40
16863;DHT22;52193;48.216;-1.698;2023-06-22T07:25:11;24.30;87.40
16863;DHT22;52193;48.216;-1.698;2023-06-22T07:27:44;24.40;87.30
16863;DHT22;52193;48.216;-1.698;2023-06-22T07:30:12;24.40;87.20
16863;DHT22;52193;48.216;-1.698;2023-06-22T07:32:40;24.40;87.10
16863;DHT22;52193;48.216;-1.698;2023-06-22T07:35:08;24.40;87.00
16863;DHT22;52193;48.216;-1.698;2023-06-22T07:37:36;24.40;86.80
16863;DHT22;52193;48.216;-1.698;2023-06-22T07:40:03;24.50;86.90
16863;DHT22;52193;48.216;-1.698;2023-06-22T07:42:32;24.50;86.70
16863;DHT22;52193;48.216;-1.698;2023-06-22T07:44:59;24.60;86.70
16863;DHT22;52193;48.216;-1.698;2023-06-22T07:47:27;24.60;86.50
16863;DHT22;52193;48.216;-1.698;2023-06-22T07:49:59;24.70;86.50
16863;DHT22;52193;48.216;-1.698;2023-06-22T07:52:27;24.70;86.30
16863;DHT22;52193;48.216;-1.698;2023-06-22T07:54:54;24.70;86.30
16863;DHT22;52193;48.216;-1.698;2023-06-22T07:57:21;24.70;86.20
16863;DHT22;52193;48.216;-1.698;2023-06-22T07:59:48;24.70;86.00
16863;DHT22;52193;48.216;-1.698;2023-06-22T08:02:14;24.80;86.00
16863;DHT22;52193;48.216;-1.698;2023-06-22T08:04:41;24.80;85.80
16863;DHT22;52193;48.216;-1.698;2023-06-22T08:07:10;24.90;85.80
16863;DHT22;52193;48.216;-1.698;2023-06-22T08:09:37;24.90;85.70
16863;DHT22;52193;48.216;-1.698;2023-06-22T08:12:04;24.90;85.50
16863;DHT22;52193;48.216;-1.698;2023-06-22T08:14:32;25.00;85.50
16863;DHT22;52193;48.216;-1.698;2023-06-22T08:17:01;25.00;85.20
16863;DHT22;52193;48.216;-1.698;2023-06-22T08:19:28;25.00;85.20
16863;DHT22;52193;48.216;-1.698;2023-06-22T08:21:55;25.10;85.90
16863;DHT22;52193;48.216;-1.698;2023-06-22T08:24:24;25.20;85.00
16863;DHT22;52193;48.216;-1.698;2023-06-22T08:26:52;25.20;84.70
16863;DHT22;52193;48.216;-1.698;2023-06-22T08:29:18;25.20;84.50
16863;DHT22;52193;48.216;-1.698;2023-06-22T08:31:45;25.30;84.40
16863;DHT22;52193;48.216;-1.698;2023-06-22T08:34:12;25.30;84.10
16863;DHT22;52193;48.216;-1.698;2023-06-22T08:36:39;25.30;83.90
16863;DHT22;52193;48.216;-1.698;2023-06-22T08:39:10;25.40;83.70
16863;DHT22;52193;48.216;-1.698;2023-06-22T08:41:38;25.50;83.60
16863;DHT22;52193;48.216;-1.698;2023-06-22T08:44:05;25.50;83.20
16863;DHT22;52193;48.216;-1.698;2023-06-22T08:46:32;25.50;83.10
16863;DHT22;52193;48.216;-1.698;2023-06-22T08:48:59;25.60;83.10
16863;DHT22;52193;48.216;-1.698;2023-06-22T08:51:26;25.70;82.90
16863;DHT22;52193;48.216;-1.698;2023-06-22T08:53:54;25.80;82.90
16863;DHT22;52193;48.216;-1.698;2023-06-22T08:56:21;25.80;82.60
16863;DHT22;52193;48.216;-1.698;2023-06-22T08:58:49;25.80;82.40
16863;DHT22;52193;48.216;-1.698;2023-06-22T09:01:16;25.80;82.30
16863;DHT22;52193;48.216;-1.698;2023-06-22T09:03:43;25.90;82.30
16863;DHT22;52193;48.216;-1.698;2023-06-22T09:06:10;25.90;82.10
16863;DHT22;52193;48.216;-1.698;2023-06-22T09:08:37;26.00;82.10
16863;DHT22;52193;48.216;-1.698;2023-06-22T09:11:04;26.00;82.00
16863;DHT22;52193;48.216;-1.698;2023-06-22T09:13:32;26.10;81.80
16863;DHT22;52193;48.216;-1.698;2023-06-22T09:16:01;26.10;81.70
16863;DHT22;52193;48.216;-1.698;2023-06-22T09:18:28;26.20;81.60
16863;DHT22;52193;48.216;-1.698;2023-06-22T09:20:56;26.30;81.50
16863;DHT22;52193;48.216;-1.698;2023-06-22T09:23:23;26.30;81.30
16863;DHT22;52193;48.216;-1.698;2023-06-22T09:25:50;26.40;81.20
16863;DHT22;52193;48.216;-1.698;2023-06-22T09:28:17;26.40;81.10
16863;DHT22;52193;48.216;-1.698;2023-06-22T09:30:44;26.50;80.90
16863;DHT22;52193;48.216;-1.698;2023-06-22T09:33:12;26.50;80.80
16863;DHT22;52193;48.216;-1.698;2023-06-22T09:35:39;26.50;80.60
16863;DHT22;52193;48.216;-1.698;2023-06-22T09:38:06;26.60;80.60
16863;DHT22;52193;48.216;-1.698;2023-06-22T09:40:33;26.60;80.40
16863;DHT22;52193;48.216;-1.698;2023-06-22T09:43:05;26.70;80.10
16863;DHT22;52193;48.216;-1.698;2023-06-22T09:45:32;26.70;79.80
16863;DHT22;52193;48.216;-1.698;2023-06-22T09:47:59;26.90;79.70
16863;DHT22;52193;48.216;-1.698;2023-06-22T09:50:27;26.90;79.60
16863;DHT22;52193;48.216;-1.698;2023-06-22T09:52:54;27.00;79.20
16863;DHT22;52193;48.216;-1.698;2023-06-22T09:55:21;27.20;79.00
16863;DHT22;52193;48.216;-1.698;2023-06-22T09:57:48;27.30;78.70
16863;DHT22;52193;48.216;-1.698;2023-06-22T10:00:16;27.50;78.60
16863;DHT22;52193;48.216;-1.698;2023-06-22T10:02:46;27.60;79.20
16863;DHT22;52193;48.216;-1.698;2023-06-22T10:05:13;27.50;78.20
16863;DHT22;52193;48.216;-1.698;2023-06-22T10:07:41;27.60;78.00
16863;DHT22;52193;48.216;-1.698;2023-06-22T10:10:09;27.60;77.80
16863;DHT22;52193;48.216;-1.698;2023-06-22T10:12:40;27.60;77.60
16863;DHT22;52193;48.216;-1.698;2023-06-22T10:15:08;27.70;77.70
16863;DHT22;52193;48.216;-1.698;2023-06-22T10:17:35;27.70;77.50
16863;DHT22;52193;48.216;-1.698;2023-06-22T10:20:02;27.80;77.30
16863;DHT22;52193;48.216;-1.698;2023-06-22T10:22:36;27.80;77.30
16863;DHT22;52193;48.216;-1.698;2023-06-22T10:25:06;27.90;77.00
16863;DHT22;52193;48.216;-1.698;2023-06-22T10:27:33;27.80;76.70
16863;DHT22;52193;48.216;-1.698;2023-06-22T10:30:00;27.90;76.70
16863;DHT22;52193;48.216;-1.698;2023-06-22T10:32:28;27.90;76.70
16863;DHT22;52193;48.216;-1.698;2023-06-22T10:34:54;28.00;76.70
16863;DHT22;52193;48.216;-1.698;2023-06-22T10:37:22;28.00;76.50
16863;DHT22;52193;48.216;-1.698;2023-06-22T10:39:49;28.10;76.30
16863;DHT22;52193;48.216;-1.698;2023-06-22T10:42:17;28.10;76.30
16863;DHT22;52193;48.216;-1.698;2023-06-22T10:44:44;28.10;76.20
16863;DHT22;52193;48.216;-1.698;2023-06-22T10:47:11;28.20;76.00
16863;DHT22;52193;48.216;-1.698;2023-06-22T10:49:38;28.10;75.70
16863;DHT22;52193;48.216;-1.698;2023-06-22T10:52:06;28.20;75.80
16863;DHT22;52193;48.216;-1.698;2023-06-22T10:54:34;28.20;75.50
16863;DHT22;52193;48.216;-1.698;2023-06-22T10:57:01;28.20;75.30
16863;DHT22;52193;48.216;-1.698;2023-06-22T10:59:29;28.30;75.30
16863;DHT22;52193;48.216;-1.698;2023-06-22T11:01:56;28.40;75.20
16863;DHT22;52193;48.216;-1.698;2023-06-22T11:04:24;28.40;74.90
16863;DHT22;52193;48.216;-1.698;2023-06-22T11:06:51;28.50;75.00
16863;DHT22;52193;48.216;-1.698;2023-06-22T11:09:18;28.60;74.90
16863;DHT22;52193;48.216;-1.698;2023-06-22T11:11:46;28.60;74.70
16863;DHT22;52193;48.216;-1.698;2023-06-22T11:14:13;28.70;74.80
16863;DHT22;52193;48.216;-1.698;2023-06-22T11:16:42;28.70;74.80
16863;DHT22;52193;48.216;-1.698;2023-06-22T11:19:08;28.70;74.80
16863;DHT22;52193;48.216;-1.698;2023-06-22T11:21:35;28.80;74.60
16863;DHT22;52193;48.216;-1.698;2023-06-22T11:24:02;28.90;74.50
16863;DHT22;52193;48.216;-1.698;2023-06-22T11:26:30;29.00;74.40
16863;DHT22;52193;48.216;-1.698;2023-06-22T11:28:57;29.00;74.10
16863;DHT22;52193;48.216;-1.698;2023-06-22T11:31:24;29.10;73.90
16863;DHT22;52193;48.216;-1.698;2023-06-22T11:33:53;29.10;73.60
16863;DHT22;52193;48.216;-1.698;2023-06-22T11:36:20;29.30;73.90
16863;DHT22;52193;48.216;-1.698;2023-06-22T11:38:47;29.40;73.70
16863;DHT22;52193;48.216;-1.698;2023-06-22T11:41:14;29.50;73.60
16863;DHT22;52193;48.216;-1.698;2023-06-22T11:43:41;29.60;73.40
16863;DHT22;52193;48.216;-1.698;2023-06-22T11:46:07;29.80;73.20
16863;DHT22;52193;48.216;-1.698;2023-06-22T11:48:34;29.90;72.60
16863;DHT22;52193;48.216;-1.698;2023-06-22T11:51:03;30.00;72.50
16863;DHT22;52193;48.216;-1.698;2023-06-22T11:53:32;30.20;72.50
16863;DHT22;52193;48.216;-1.698;2023-06-22T11:56:00;30.30;72.30
16863;DHT22;52193;48.216;-1.698;2023-06-22T11:58:27;30.50;71.90
16863;DHT22;52193;48.216;-1.698;2023-06-22T12:00:54;30.80;71.70
16863;DHT22;52193;48.216;-1.698;2023-06-22T12:03:21;31.20;71.50
16863;DHT22;52193;48.216;-1.698;2023-06-22T12:05:49;31.60;71.30
16863;DHT22;52193;48.216;-1.698;2023-06-22T12:08:17;32.00;71.00
16863;DHT22;52193;48.216;-1.698;2023-06-22T12:10:44;32.40;70.70
16863;DHT22;52193;48.216;-1.698;2023-06-22T12:13:11;32.70;70.30
16863;DHT22;52193;48.216;-1.698;2023-06-22T12:15:38;33.00;69.90
16863;DHT22;52193;48.216;-1.698;2023-06-22T12:18:05;33.40;69.40
16863;DHT22;52193;48.216;-1.698;2023-06-22T12:20:32;33.70;69.00
16863;DHT22;52193;48.216;-1.698;2023-06-22T12:22:59;34.00;68.00
16863;DHT22;52193;48.216;-1.698;2023-06-22T12:25:27;34.40;67.80
16863;DHT22;52193;48.216;-1.698;2023-06-22T12:27:54;35.00;67.10
16863;DHT22;52193;48.216;-1.698;2023-06-22T12:30:21;35.30;66.00
16863;DHT22;52193;48.216;-1.698;2023-06-22T12:32:48;35.70;65.20
16863;DHT22;52193;48.216;-1.698;2023-06-22T12:35:15;36.30;64.60
16863;DHT22;52193;48.216;-1.698;2023-06-22T12:37:42;36.20;63.70
16863;DHT22;52193;48.216;-1.698;2023-06-22T12:40:10;36.60;62.90
16863;DHT22;52193;48.216;-1.698;2023-06-22T12:42:39;37.20;62.50
16863;DHT22;52193;48.216;-1.698;2023-06-22T12:45:08;37.90;61.50
16863;DHT22;52193;48.216;-1.698;2023-06-22T12:47:35;37.90;60.80
16863;DHT22;52193;48.216;-1.698;2023-06-22T12:50:02;38.50;60.70
16863;DHT22;52193;48.216;-1.698;2023-06-22T12:52:30;39.10;59.60
16863;DHT22;52193;48.216;-1.698;2023-06-22T12:54:57;39.30;59.00
16863;DHT22;52193;48.216;-1.698;2023-06-22T12:57:24;38.50;59.00
16863;DHT22;52193;48.216;-1.698;2023-06-22T12:59:53;38.70;58.60
16863;DHT22;52193;48.216;-1.698;2023-06-22T13:02:20;39.20;58.10
16863;DHT22;52193;48.216;-1.698;2023-06-22T13:04:46;39.90;57.70
16863;DHT22;52193;48.216;-1.698;2023-06-22T13:07:13;40.80;57.20
16863;DHT22;52193;48.216;-1.698;2023-06-22T13:09:40;40.70;55.50
16863;DHT22;52193;48.216;-1.698;2023-06-22T13:12:08;41.30;55.20
16863;DHT22;52193;48.216;-1.698;2023-06-22T13:14:35;42.30;54.00
16863;DHT22;52193;48.216;-1.698;2023-06-22T13:17:03;43.00;53.00
16863;DHT22;52193;48.216;-1.698;2023-06-22T13:19:30;44.00;52.00
16863;DHT22;52193;48.216;-1.698;2023-06-22T13:21:58;44.70;51.00
16863;DHT22;52193;48.216;-1.698;2023-06-22T13:24:25;45.60;50.80
16863;DHT22;52193;48.216;-1.698;2023-06-22T13:26:52;46.60;49.90
16863;DHT22;52193;48.216;-1.698;2023-06-22T13:29:20;47.50;49.20
16863;DHT22;52193;48.216;-1.698;2023-06-22T13:31:47;47.80;47.90
16863;DHT22;52193;48.216;-1.698;2023-06-22T13:34:15;48.00;47.10
16863;DHT22;52193;48.216;-1.698;2023-06-22T13:36:42;48.80;46.20
16863;DHT22;52193;48.216;-1.698;2023-06-22T13:39:09;49.10;45.70
16863;DHT22;52193;48.216;-1.698;2023-06-22T13:41:36;49.50;45.30
16863;DHT22;52193;48.216;-1.698;2023-06-22T13:44:03;50.50;45.40
16863;DHT22;52193;48.216;-1.698;2023-06-22T13:46:30;51.40;45.20
16863;DHT22;52193;48.216;-1.698;2023-06-22T13:48:57;52.10;44.30
16863;DHT22;52193;48.216;-1.698;2023-06-22T13:51:25;52.20;43.70
16863;DHT22;52193;48.216;-1.698;2023-06-22T13:53:53;52.80;42.90
16863;DHT22;52193;48.216;-1.698;2023-06-22T13:56:19;53.00;42.00
16863;DHT22;52193;48.216;-1.698;2023-06-22T13:58:47;53.50;42.20
16863;DHT22;52193;48.216;-1.698;2023-06-22T14:01:14;54.00;41.70
16863;DHT22;52193;48.216;-1.698;2023-06-22T14:03:41;54.00;41.50
16863;DHT22;52193;48.216;-1.698;2023-06-22T14:06:10;54.00;41.60
16863;DHT22;52193;48.216;-1.698;2023-06-22T14:08:38;54.30;41.50
16863;DHT22;52193;48.216;-1.698;2023-06-22T14:11:05;54.10;40.70
16863;DHT22;52193;48.216;-1.698;2023-06-22T14:13:32;53.80;40.80
16863;DHT22;52193;48.216;-1.698;2023-06-22T14:16:01;53.90;40.50
16863;DHT22;52193;48.216;-1.698;2023-06-22T14:18:29;53.80;40.40
16863;DHT22;52193;48.216;-1.698;2023-06-22T14:20:56;53.70;40.50
16863;DHT22;52193;48.216;-1.698;2023-06-22T14:23:23;53.40;40.30
16863;DHT22;52193;48.216;-1.698;2023-06-22T14:25:51;53.40;40.20
16863;DHT22;52193;48.216;-1.698;2023-06-22T14:28:18;53.10;40.30
16863;DHT22;52193;48.216;-1.698;2023-06-22T14:30:45;52.80;40.50
16863;DHT22;52193;48.216;-1.698;2023-06-22T14:33:12;52.60;40.00
16863;DHT22;52193;48.216;-1.698;2023-06-22T14:35:39;52.50;40.20
16863;DHT22;52193;48.216;-1.698;2023-06-22T14:38:06;52.20;40.30
16863;DHT22;52193;48.216;-1.698;2023-06-22T14:40:33;51.90;40.40
16863;DHT22;52193;48.216;-1.698;2023-06-22T14:43:01;51.70;40.60
16863;DHT22;52193;48.216;-1.698;2023-06-22T14:45:28;51.40;40.60
16863;DHT22;52193;48.216;-1.698;2023-06-22T14:47:55;51.00;40.70
16863;DHT22;52193;48.216;-1.698;2023-06-22T14:50:22;50.70;41.10
16863;DHT22;52193;48.216;-1.698;2023-06-22T14:52:49;50.30;40.70
16863;DHT22;52193;48.216;-1.698;2023-06-22T14:55:16;50.00;40.80
16863;DHT22;52193;48.216;-1.698;2023-06-22T14:57:43;49.70;41.30
16863;DHT22;52193;48.216;-1.698;2023-06-22T15:00:12;49.50;41.40
16863;DHT22;52193;48.216;-1.698;2023-06-22T15:02:40;49.40;41.50
16863;DHT22;52193;48.216;-1.698;2023-06-22T15:05:08;49.10;41.90
16863;DHT22;52193;48.216;-1.698;2023-06-22T15:07:35;48.90;42.00
16863;DHT22;52193;48.216;-1.698;2023-06-22T15:10:02;48.70;41.80
16863;DHT22;52193;48.216;-1.698;2023-06-22T15:12:29;48.40;42.00
16863;DHT22;52193;48.216;-1.698;2023-06-22T15:14:55;48.20;42.10
16863;DHT22;52193;48.216;-1.698;2023-06-22T15:17:24;48.00;42.30